sensor_id;sensor_type;location;lat;lon;timestamp;P1;durP1;ratioP1;P2;durP2;ratioP2
3647;SDS011;1840;48.892;15.312;2023-11-22T00:02:26;9.27;;;7.33;;
3647;SDS011;1840;48.892;15.312;2023-11-22T00:04:55;7.17;;;5.60;;
3647;SDS011;1840;48.892;15.312;2023-11-22T00:07:24;7.30;;;5.60;;
3647;SDS011;1840;48.892;15.312;2023-11-22T00:09:55;7.10;;;6.00;;
3647;SDS011;1840;48.892;15.312;2023-11-22T00:12:24;7.00;;;5.50;;
3647;SDS011;1840;48.892;15.312;2023-11-22T00:14:52;7.00;;;5.70;;
3647;SDS011;1840;48.892;15.312;2023-11-22T00:17:22;6.53;;;5.47;;
3647;SDS011;1840;48.892;15.312;2023-11-22T00:19:51;6.50;;;5.13;;
3647;SDS011;1840;48.892;15.312;2023-11-22T00:22:22;6.60;;;5.40;;
3647;SDS011;1840;48.892;15.312;2023-11-22T00:24:49;6.00;;;4.93;;
3647;SDS011;1840;48.892;15.312;2023-11-22T00:27:18;6.93;;;6.00;;
3647;SDS011;1840;48.892;15.312;2023-11-22T00:29:47;7.90;;;5.73;;
3647;SDS011;1840;48.892;15.312;2023-11-22T00:32:15;8.87;;;5.30;;
3647;SDS011;1840;48.892;15.312;2023-11-22T00:34:44;7.50;;;5.00;;
3647;SDS011;1840;48.892;15.312;2023-11-22T00:37:13;6.40;;;4.97;;
3647;SDS011;1840;48.892;15.312;2023-11-22T00:39:41;7.37;;;5.23;;
3647;SDS011;1840;48.892;15.312;2023-11-22T00:42:10;5.40;;;4.60;;
3647;SDS011;1840;48.892;15.312;2023-11-22T00:44:38;8.67;;;4.70;;
3647;SDS011;1840;48.892;15.312;2023-11-22T00:47:06;6.40;;;4.57;;
3647;SDS011;1840;48.892;15.312;2023-11-22T00:49:34;7.57;;;5.00;;
3647;SDS011;1840;48.892;15.312;2023-11-22T00:52:04;5.83;;;4.73;;
3647;SDS011;1840;48.892;15.312;2023-11-22T00:54:36;7.30;;;5.40;;
3647;SDS011;1840;48.892;15.312;2023-11-22T00:57:05;7.50;;;5.27;;
3647;SDS011;1840;48.892;15.312;2023-11-22T00:59:34;9.67;;;5.90;;
3647;SDS011;1840;48.892;15.312;2023-11-22T01:02:02;6.47;;;5.60;;
3647;SDS011;1840;48.892;15.312;2023-11-22T01:04:31;5.40;;;4.70;;
3647;SDS011;1840;48.892;15.312;2023-11-22T01:07:03;6.83;;;5.20;;
3647;SDS011;1840;48.892;15.312;2023-11-22T01:09:31;6.67;;;5.30;;
3647;SDS011;1840;48.892;15.312;2023-11-22T01:12:00;8.33;;;5.27;;
3647;SDS011;1840;48.892;15.312;2023-11-22T01:14:28;6.77;;;5.50;;
3647;SDS011;1840;48.892;15.312;2023-11-22T01:16:56;8.37;;;5.23;;
3647;SDS011;1840;48.892;15.312;2023-11-22T01:19:24;7.93;;;5.30;;
3647;SDS011;1840;48.892;15.312;2023-11-22T01:21:53;6.87;;;5.10;;
3647;SDS011;1840;48.892;15.312;2023-11-22T01:24:22;6.03;;;5.23;;
3647;SDS011;1840;48.892;15.312;2023-11-22T01:26:52;6.60;;;5.33;;
3647;SDS011;1840;48.892;15.312;2023-11-22T01:29:20;6.27;;;5.10;;
3647;SDS011;1840;48.892;15.312;2023-11-22T01:31:48;7.30;;;5.67;;
3647;SDS011;1840;48.892;15.312;2023-11-22T01:34:19;6.97;;;5.43;;
3647;SDS011;1840;48.892;15.312;2023-11-22T01:36:49;8.00;;;5.73;;
3647;SDS011;1840;48.892;15.312;2023-11-22T01:39:18;11.20;;;6.27;;
3647;SDS011;1840;48.892;15.312;2023-11-22T01:41:48;11.90;;;7.60;;
3647;SDS011;1840;48.892;15.312;2023-11-22T01:44:17;9.93;;;6.90;;
3647;SDS011;1840;48.892;15.312;2023-11-22T01:46:46;8.20;;;6.50;;
3647;SDS011;1840;48.892;15.312;2023-11-22T01:49:14;9.40;;;6.30;;
3647;SDS011;1840;48.892;15.312;2023-11-22T01:51:43;10.70;;;6.90;;
3647;SDS011;1840;48.892;15.312;2023-11-22T01:54:11;10.80;;;7.23;;
3647;SDS011;1840;48.892;15.312;2023-11-22T01:56:39;10.27;;;6.80;;
3647;SDS011;1840;48.892;15.312;2023-11-22T01:59:09;10.80;;;7.10;;
3647;SDS011;1840;48.892;15.312;2023-11-22T02:01:37;8.47;;;6.90;;
3647;SDS011;1840;48.892;15.312;2023-11-22T02:04:06;8.87;;;7.00;;
3647;SDS011;1840;48.892;15.312;2023-11-22T02:06:36;8.97;;;6.70;;
3647;SDS011;1840;48.892;15.312;2023-11-22T02:09:04;7.10;;;5.80;;
3647;SDS011;1840;48.892;15.312;2023-11-22T02:11:32;6.57;;;5.63;;
3647;SDS011;1840;48.892;15.312;2023-11-22T02:14:01;8.23;;;6.20;;
3647;SDS011;1840;48.892;15.312;2023-11-22T02:16:31;8.67;;;6.70;;
3647;SDS011;1840;48.892;15.312;2023-11-22T02:18:59;7.03;;;5.73;;
3647;SDS011;1840;48.892;15.312;2023-11-22T02:21:28;9.70;;;5.93;;
3647;SDS011;1840;48.892;15.312;2023-11-22T02:23:57;6.63;;;5.70;;
3647;SDS011;1840;48.892;15.312;2023-11-22T02:26:25;9.00;;;6.90;;
3647;SDS011;1840;48.892;15.312;2023-11-22T02:28:54;12.13;;;6.40;;
3647;SDS011;1840;48.892;15.312;2023-11-22T02:31:22;8.47;;;6.07;;
3647;SDS011;1840;48.892;15.312;2023-11-22T02:33:50;9.47;;;5.20;;
3647;SDS011;1840;48.892;15.312;2023-11-22T02:36:18;9.57;;;5.00;;
3647;SDS011;1840;48.892;15.312;2023-11-22T02:38:46;6.07;;;5.07;;
3647;SDS011;1840;48.892;15.312;2023-11-22T02:41:16;5.40;;;4.47;;
3647;SDS011;1840;48.892;15.312;2023-11-22T02:43:45;5.83;;;4.73;;
3647;SDS011;1840;48.892;15.312;2023-11-22T02:46:13;7.20;;;5.10;;
3647;SDS011;1840;48.892;15.312;2023-11-22T02:48:41;11.30;;;4.70;;
3647;SDS011;1840;48.892;15.312;2023-11-22T02:51:11;5.43;;;4.70;;
3647;SDS011;1840;48.892;15.312;2023-11-22T02:53:40;5.40;;;4.20;;
3647;SDS011;1840;48.892;15.312;2023-11-22T02:56:10;7.53;;;5.00;;
3647;SDS011;1840;48.892;15.312;2023-11-22T02:58:39;5.20;;;4.20;;
3647;SDS011;1840;48.892;15.312;2023-11-22T03:01:08;6.73;;;4.93;;
3647;SDS011;1840;48.892;15.312;2023-11-22T03:03:39;17.00;;;5.90;;
3647;SDS011;1840;48.892;15.312;2023-11-22T03:06:12;7.37;;;5.70;;
3647;SDS011;1840;48.892;15.312;2023-11-22T03:08:41;7.57;;;5.60;;
3647;SDS011;1840;48.892;15.312;2023-11-22T03:11:09;8.93;;;5.50;;
3647;SDS011;1840;48.892;15.312;2023-11-22T03:13:37;6.93;;;5.30;;
3647;SDS011;1840;48.892;15.312;2023-11-22T03:16:06;7.40;;;6.17;;
3647;SDS011;1840;48.892;15.312;2023-11-22T03:18:35;7.70;;;6.37;;
3647;SDS011;1840;48.892;15.312;2023-11-22T03:21:05;7.30;;;5.60;;
3647;SDS011;1840;48.892;15.312;2023-11-22T03:23:33;14.87;;;6.50;;
3647;SDS011;1840;48.892;15.312;2023-11-22T03:26:01;7.77;;;6.60;;
3647;SDS011;1840;48.892;15.312;2023-11-22T03:28:29;7.47;;;5.87;;
3647;SDS011;1840;48.892;15.312;2023-11-22T03:30:57;7.83;;;5.50;;
3647;SDS011;1840;48.892;15.312;2023-11-22T03:33:27;34.77;;;9.20;;
3647;SDS011;1840;48.892;15.312;2023-11-22T03:35:55;8.90;;;6.00;;
3647;SDS011;1840;48.892;15.312;2023-11-22T03:38:24;8.87;;;6.30;;
3647;SDS011;1840;48.892;15.312;2023-11-22T03:40:53;7.87;;;5.77;;
3647;SDS011;1840;48.892;15.312;2023-11-22T03:43:21;5.00;;;4.50;;
3647;SDS011;1840;48.892;15.312;2023-11-22T03:45:48;4.67;;;4.10;;
3647;SDS011;1840;48.892;15.312;2023-11-22T03:48:16;5.90;;;3.87;;
3647;SDS011;1840;48.892;15.312;2023-11-22T03:50:50;4.20;;;3.60;;
3647;SDS011;1840;48.892;15.312;2023-11-22T03:53:19;5.93;;;4.37;;
3647;SDS011;1840;48.892;15.312;2023-11-22T03:55:48;4.70;;;3.60;;
3647;SDS011;1840;48.892;15.312;2023-11-22T03:58:18;4.60;;;3.77;;
3647;SDS011;1840;48.892;15.312;2023-11-22T04:00:47;4.93;;;3.97;;
3647;SDS011;1840;48.892;15.312;2023-11-22T04:03:15;4.73;;;3.70;;
3647;SDS011;1840;48.892;15.312;2023-11-22T04:05:45;6.13;;;4.00;;
3647;SDS011;1840;48.892;15.312;2023-11-22T04:08:14;6.20;;;5.00;;
3647;SDS011;1840;48.892;15.312;2023-11-22T04:10:42;6.30;;;4.53;;
3647;SDS011;1840;48.892;15.312;2023-11-22T04:13:10;6.27;;;5.03;;
3647;SDS011;1840;48.892;15.312;2023-11-22T04:15:39;8.60;;;6.20;;
3647;SDS011;1840;48.892;15.312;2023-11-22T04:18:08;8.63;;;6.67;;
3647;SDS011;1840;48.892;15.312;2023-11-22T04:20:37;8.27;;;6.53;;
3647;SDS011;1840;48.892;15.312;2023-11-22T04:23:07;9.10;;;7.10;;
3647;SDS011;1840;48.892;15.312;2023-11-22T04:25:42;9.30;;;6.83;;
3647;SDS011;1840;48.892;15.312;2023-11-22T04:28:10;6.93;;;5.67;;
3647;SDS011;1840;48.892;15.312;2023-11-22T04:30:39;9.57;;;8.00;;
3647;SDS011;1840;48.892;15.312;2023-11-22T04:33:07;9.33;;;6.80;;
3647;SDS011;1840;48.892;15.312;2023-11-22T04:35:36;11.80;;;8.63;;
3647;SDS011;1840;48.892;15.312;2023-11-22T04:38:05;11.97;;;8.30;;
3647;SDS011;1840;48.892;15.312;2023-11-22T04:40:33;9.40;;;7.57;;
3647;SDS011;1840;48.892;15.312;2023-11-22T04:43:03;10.33;;;7.80;;
3647;SDS011;1840;48.892;15.312;2023-11-22T04:45:32;9.43;;;7.27;;
3647;SDS011;1840;48.892;15.312;2023-11-22T04:48:00;9.33;;;7.50;;
3647;SDS011;1840;48.892;15.312;2023-11-22T04:50:28;9.40;;;7.17;;
3647;SDS011;1840;48.892;15.312;2023-11-22T04:52:57;9.00;;;7.27;;
3647;SDS011;1840;48.892;15.312;2023-11-22T04:55:25;10.83;;;8.00;;
3647;SDS011;1840;48.892;15.312;2023-11-22T04:57:53;9.87;;;7.90;;
3647;SDS011;1840;48.892;15.312;2023-11-22T05:00:22;9.77;;;7.00;;
3647;SDS011;1840;48.892;15.312;2023-11-22T05:02:52;10.40;;;7.50;;
3647;SDS011;1840;48.892;15.312;2023-11-22T05:05:21;13.23;;;8.40;;
3647;SDS011;1840;48.892;15.312;2023-11-22T05:07:49;12.43;;;8.80;;
3647;SDS011;1840;48.892;15.312;2023-11-22T05:10:18;12.50;;;7.77;;
3647;SDS011;1840;48.892;15.312;2023-11-22T05:12:46;10.13;;;7.10;;
3647;SDS011;1840;48.892;15.312;2023-11-22T05:15:15;9.13;;;6.87;;
3647;SDS011;1840;48.892;15.312;2023-11-22T05:17:44;7.83;;;5.87;;
3647;SDS011;1840;48.892;15.312;2023-11-22T05:20:13;10.77;;;6.53;;
3647;SDS011;1840;48.892;15.312;2023-11-22T05:22:41;9.30;;;6.20;;
3647;SDS011;1840;48.892;15.312;2023-11-22T05:25:09;10.80;;;7.00;;
3647;SDS011;1840;48.892;15.312;2023-11-22T05:27:37;9.30;;;6.60;;
3647;SDS011;1840;48.892;15.312;2023-11-22T05:30:06;9.13;;;6.27;;
3647;SDS011;1840;48.892;15.312;2023-11-22T05:32:37;7.40;;;5.13;;
3647;SDS011;1840;48.892;15.312;2023-11-22T05:35:07;8.93;;;6.40;;
3647;SDS011;1840;48.892;15.312;2023-11-22T05:37:36;8.00;;;5.50;;
3647;SDS011;1840;48.892;15.312;2023-11-22T05:40:05;8.10;;;5.40;;
3647;SDS011;1840;48.892;15.312;2023-11-22T05:42:36;6.97;;;5.17;;
3647;SDS011;1840;48.892;15.312;2023-11-22T05:45:04;7.17;;;4.70;;
3647;SDS011;1840;48.892;15.312;2023-11-22T05:47:37;8.07;;;5.60;;
3647;SDS011;1840;48.892;15.312;2023-11-22T05:50:07;9.20;;;5.27;;
3647;SDS011;1840;48.892;15.312;2023-11-22T05:52:37;8.20;;;5.73;;
3647;SDS011;1840;48.892;15.312;2023-11-22T05:55:05;5.90;;;4.87;;
3647;SDS011;1840;48.892;15.312;2023-11-22T05:57:35;6.03;;;4.63;;
3647;SDS011;1840;48.892;15.312;2023-11-22T06:00:03;6.03;;;4.37;;
3647;SDS011;1840;48.892;15.312;2023-11-22T06:02:32;7.10;;;5.43;;
3647;SDS011;1840;48.892;15.312;2023-11-22T06:05:01;5.63;;;4.37;;
3647;SDS011;1840;48.892;15.312;2023-11-22T06:07:41;8.40;;;5.67;;
3647;SDS011;1840;48.892;15.312;2023-11-22T06:10:09;7.53;;;5.10;;
3647;SDS011;1840;48.892;15.312;2023-11-22T06:12:39;9.13;;;5.40;;
3647;SDS011;1840;48.892;15.312;2023-11-22T06:15:08;7.50;;;5.50;;
3647;SDS011;1840;48.892;15.312;2023-11-22T06:17:36;10.27;;;6.93;;
3647;SDS011;1840;48.892;15.312;2023-11-22T06:20:05;6.20;;;4.83;;
3647;SDS011;1840;48.892;15.312;2023-11-22T06:22:34;9.97;;;5.27;;
3647;SDS011;1840;48.892;15.312;2023-11-22T06:25:09;6.70;;;5.27;;
3647;SDS011;1840;48.892;15.312;2023-11-22T06:27:38;7.27;;;5.40;;
3647;SDS011;1840;48.892;15.312;2023-11-22T06:30:06;7.03;;;5.30;;
3647;SDS011;1840;48.892;15.312;2023-11-22T06:32:35;9.60;;;6.77;;
3647;SDS011;1840;48.892;15.312;2023-11-22T06:35:04;7.30;;;5.20;;
3647;SDS011;1840;48.892;15.312;2023-11-22T06:37:35;14.83;;;6.00;;
3647;SDS011;1840;48.892;15.312;2023-11-22T06:40:04;9.83;;;6.17;;
3647;SDS011;1840;48.892;15.312;2023-11-22T06:42:34;8.10;;;5.30;;
3647;SDS011;1840;48.892;15.312;2023-11-22T06:45:02;9.70;;;6.47;;
3647;SDS011;1840;48.892;15.312;2023-11-22T06:47:32;10.10;;;7.27;;
3647;SDS011;1840;48.892;15.312;2023-11-22T06:50:01;7.07;;;5.50;;
3647;SDS011;1840;48.892;15.312;2023-11-22T06:52:30;6.30;;;4.50;;
3647;SDS011;1840;48.892;15.312;2023-11-22T06:54:59;7.90;;;4.83;;
3647;SDS011;1840;48.892;15.312;2023-11-22T06:57:27;6.90;;;4.97;;
3647;SDS011;1840;48.892;15.312;2023-11-22T06:59:57;8.10;;;5.67;;
3647;SDS011;1840;48.892;15.312;2023-11-22T07:02:25;8.37;;;5.97;;
3647;SDS011;1840;48.892;15.312;2023-11-22T07:04:53;9.90;;;6.73;;
3647;SDS011;1840;48.892;15.312;2023-11-22T07:07:21;8.13;;;5.90;;
3647;SDS011;1840;48.892;15.312;2023-11-22T07:09:53;8.10;;;5.80;;
3647;SDS011;1840;48.892;15.312;2023-11-22T07:12:22;12.07;;;7.13;;
3647;SDS011;1840;48.892;15.312;2023-11-22T07:14:58;9.30;;;6.93;;
3647;SDS011;1840;48.892;15.312;2023-11-22T07:17:26;10.03;;;6.90;;
3647;SDS011;1840;48.892;15.312;2023-11-22T07:19:58;11.60;;;7.63;;
3647;SDS011;1840;48.892;15.312;2023-11-22T07:22:27;9.60;;;6.63;;
3647;SDS011;1840;48.892;15.312;2023-11-22T07:24:56;9.80;;;7.27;;
3647;SDS011;1840;48.892;15.312;2023-11-22T07:27:27;9.03;;;6.87;;
3647;SDS011;1840;48.892;15.312;2023-11-22T07:29:55;10.27;;;7.00;;
3647;SDS011;1840;48.892;15.312;2023-11-22T07:32:25;12.67;;;8.27;;
3647;SDS011;1840;48.892;15.312;2023-11-22T07:34:54;13.30;;;8.20;;
3647;SDS011;1840;48.892;15.312;2023-11-22T07:37:23;11.20;;;8.77;;
3647;SDS011;1840;48.892;15.312;2023-11-22T07:39:51;13.13;;;8.73;;
3647;SDS011;1840;48.892;15.312;2023-11-22T07:42:20;15.13;;;9.40;;
3647;SDS011;1840;48.892;15.312;2023-11-22T07:44:48;12.50;;;8.90;;
3647;SDS011;1840;48.892;15.312;2023-11-22T07:47:22;15.53;;;8.83;;
3647;SDS011;1840;48.892;15.312;2023-11-22T07:49:59;11.63;;;7.53;;
3647;SDS011;1840;48.892;15.312;2023-11-22T07:52:31;12.50;;;8.10;;
3647;SDS011;1840;48.892;15.312;2023-11-22T07:55:01;12.80;;;7.87;;
3647;SDS011;1840;48.892;15.312;2023-11-22T07:57:29;15.10;;;9.70;;
3647;SDS011;1840;48.892;15.312;2023-11-22T07:59:57;13.30;;;8.63;;
3647;SDS011;1840;48.892;15.312;2023-11-22T08:02:27;17.23;;;10.67;;
3647;SDS011;1840;48.892;15.312;2023-11-22T08:04:55;15.73;;;9.40;;
3647;SDS011;1840;48.892;15.312;2023-11-22T08:07:25;14.40;;;9.23;;
3647;SDS011;1840;48.892;15.312;2023-11-22T08:09:54;16.23;;;10.00;;
3647;SDS011;1840;48.892;15.312;2023-11-22T08:12:23;14.53;;;10.30;;
3647;SDS011;1840;48.892;15.312;2023-11-22T08:14:52;13.93;;;9.40;;
3647;SDS011;1840;48.892;15.312;2023-11-22T08:17:22;15.30;;;9.60;;
3647;SDS011;1840;48.892;15.312;2023-11-22T08:19:50;14.47;;;9.10;;
3647;SDS011;1840;48.892;15.312;2023-11-22T08:22:19;13.27;;;9.00;;
3647;SDS011;1840;48.892;15.312;2023-11-22T08:24:51;16.33;;;9.90;;
3647;SDS011;1840;48.892;15.312;2023-11-22T08:27:20;12.80;;;8.23;;
3647;SDS011;1840;48.892;15.312;2023-11-22T08:29:48;14.33;;;9.83;;
3647;SDS011;1840;48.892;15.312;2023-11-22T08:32:17;17.90;;;10.40;;
3647;SDS011;1840;48.892;15.312;2023-11-22T08:34:49;14.30;;;9.33;;
3647;SDS011;1840;48.892;15.312;2023-11-22T08:37:18;14.77;;;10.20;;
3647;SDS011;1840;48.892;15.312;2023-11-22T08:39:46;14.20;;;9.13;;
3647;SDS011;1840;48.892;15.312;2023-11-22T08:42:17;16.70;;;9.30;;
3647;SDS011;1840;48.892;15.312;2023-11-22T08:44:45;13.10;;;8.80;;
3647;SDS011;1840;48.892;15.312;2023-11-22T08:47:15;13.40;;;8.83;;
3647;SDS011;1840;48.892;15.312;2023-11-22T08:49:44;16.00;;;9.50;;
3647;SDS011;1840;48.892;15.312;2023-11-22T08:52:15;16.93;;;10.23;;
3647;SDS011;1840;48.892;15.312;2023-11-22T08:54:43;17.73;;;10.70;;
3647;SDS011;1840;48.892;15.312;2023-11-22T08:57:11;17.23;;;10.63;;
3647;SDS011;1840;48.892;15.312;2023-11-22T08:59:41;16.83;;;10.27;;
3647;SDS011;1840;48.892;15.312;2023-11-22T09:02:09;15.60;;;10.60;;
3647;SDS011;1840;48.892;15.312;2023-11-22T09:04:39;16.57;;;9.93;;
3647;SDS011;1840;48.892;15.312;2023-11-22T09:07:08;16.57;;;11.43;;
3647;SDS011;1840;48.892;15.312;2023-11-22T09:09:40;16.70;;;10.60;;
3647;SDS011;1840;48.892;15.312;2023-11-22T09:12:09;17.50;;;11.23;;
3647;SDS011;1840;48.892;15.312;2023-11-22T09:14:40;16.93;;;9.93;;
3647;SDS011;1840;48.892;15.312;2023-11-22T09:17:09;19.03;;;10.73;;
3647;SDS011;1840;48.892;15.312;2023-11-22T09:19:37;20.63;;;12.33;;
3647;SDS011;1840;48.892;15.312;2023-11-22T09:22:05;20.50;;;12.33;;
3647;SDS011;1840;48.892;15.312;2023-11-22T09:24:33;18.60;;;11.60;;
3647;SDS011;1840;48.892;15.312;2023-11-22T09:27:03;19.67;;;12.43;;
3647;SDS011;1840;48.892;15.312;2023-11-22T09:29:32;22.90;;;13.97;;
3647;SDS011;1840;48.892;15.312;2023-11-22T09:32:02;21.40;;;13.77;;
3647;SDS011;1840;48.892;15.312;2023-11-22T09:34:31;22.63;;;14.00;;
3647;SDS011;1840;48.892;15.312;2023-11-22T09:37:01;24.30;;;14.20;;
3647;SDS011;1840;48.892;15.312;2023-11-22T09:39:30;26.20;;;13.57;;
3647;SDS011;1840;48.892;15.312;2023-11-22T09:41:59;20.10;;;13.70;;
3647;SDS011;1840;48.892;15.312;2023-11-22T09:44:29;21.57;;;13.90;;
3647;SDS011;1840;48.892;15.312;2023-11-22T09:46:57;21.67;;;14.00;;
3647;SDS011;1840;48.892;15.312;2023-11-22T09:49:27;22.10;;;13.90;;
3647;SDS011;1840;48.892;15.312;2023-11-22T09:51:59;18.87;;;11.80;;
3647;SDS011;1840;48.892;15.312;2023-11-22T09:54:30;21.10;;;12.83;;
3647;SDS011;1840;48.892;15.312;2023-11-22T09:56:59;24.13;;;14.70;;
3647;SDS011;1840;48.892;15.312;2023-11-22T09:59:29;19.10;;;12.80;;
3647;SDS011;1840;48.892;15.312;2023-11-22T10:01:59;19.80;;;12.63;;
3647;SDS011;1840;48.892;15.312;2023-11-22T10:04:28;19.13;;;12.03;;
3647;SDS011;1840;48.892;15.312;2023-11-22T10:07:00;18.90;;;11.60;;
3647;SDS011;1840;48.892;15.312;2023-11-22T10:09:29;24.53;;;13.97;;
3647;SDS011;1840;48.892;15.312;2023-11-22T10:11:58;21.23;;;13.17;;
3647;SDS011;1840;48.892;15.312;2023-11-22T10:14:28;22.00;;;13.17;;
3647;SDS011;1840;48.892;15.312;2023-11-22T10:16:57;21.50;;;13.57;;
3647;SDS011;1840;48.892;15.312;2023-11-22T10:19:27;22.63;;;13.53;;
3647;SDS011;1840;48.892;15.312;2023-11-22T10:22:03;20.70;;;12.30;;
3647;SDS011;1840;48.892;15.312;2023-11-22T10:24:33;21.70;;;12.90;;
3647;SDS011;1840;48.892;15.312;2023-11-22T10:27:02;18.60;;;12.00;;
3647;SDS011;1840;48.892;15.312;2023-11-22T10:29:32;24.50;;;14.30;;
3647;SDS011;1840;48.892;15.312;2023-11-22T10:32:00;24.00;;;13.23;;
3647;SDS011;1840;48.892;15.312;2023-11-22T10:34:31;27.20;;;15.17;;
3647;SDS011;1840;48.892;15.312;2023-11-22T10:37:01;20.80;;;14.40;;
3647;SDS011;1840;48.892;15.312;2023-11-22T10:39:30;26.90;;;15.33;;
3647;SDS011;1840;48.892;15.312;2023-11-22T10:41:59;25.43;;;16.10;;
3647;SDS011;1840;48.892;15.312;2023-11-22T10:44:28;34.70;;;16.30;;
3647;SDS011;1840;48.892;15.312;2023-11-22T10:46:57;23.13;;;14.20;;
3647;SDS011;1840;48.892;15.312;2023-11-22T10:49:27;26.07;;;15.77;;
3647;SDS011;1840;48.892;15.312;2023-11-22T10:51:57;24.63;;;14.87;;
3647;SDS011;1840;48.892;15.312;2023-11-22T10:54:26;25.50;;;15.20;;
3647;SDS011;1840;48.892;15.312;2023-11-22T10:56:55;23.00;;;13.40;;
3647;SDS011;1840;48.892;15.312;2023-11-22T10:59:28;22.90;;;14.17;;
3647;SDS011;1840;48.892;15.312;2023-11-22T11:02:00;27.50;;;15.63;;
3647;SDS011;1840;48.892;15.312;2023-11-22T11:04:33;29.87;;;15.33;;
3647;SDS011;1840;48.892;15.312;2023-11-22T11:07:08;38.27;;;16.90;;
3647;SDS011;1840;48.892;15.312;2023-11-22T11:09:42;25.17;;;16.37;;
3647;SDS011;1840;48.892;15.312;2023-11-22T11:12:13;29.50;;;17.20;;
3647;SDS011;1840;48.892;15.312;2023-11-22T11:14:41;29.83;;;16.40;;
3647;SDS011;1840;48.892;15.312;2023-11-22T11:17:11;26.40;;;15.60;;
3647;SDS011;1840;48.892;15.312;2023-11-22T11:19:41;25.63;;;16.30;;
3647;SDS011;1840;48.892;15.312;2023-11-22T11:22:11;26.90;;;16.13;;
3647;SDS011;1840;48.892;15.312;2023-11-22T11:24:43;33.23;;;17.03;;
3647;SDS011;1840;48.892;15.312;2023-11-22T11:27:15;28.33;;;16.03;;
3647;SDS011;1840;48.892;15.312;2023-11-22T11:29:45;28.07;;;17.17;;
3647;SDS011;1840;48.892;15.312;2023-11-22T11:32:15;31.23;;;17.70;;
3647;SDS011;1840;48.892;15.312;2023-11-22T11:34:57;28.60;;;16.23;;
3647;SDS011;1840;48.892;15.312;2023-11-22T11:37:30;35.03;;;19.67;;
3647;SDS011;1840;48.892;15.312;2023-11-22T11:39:58;29.20;;;17.37;;
3647;SDS011;1840;48.892;15.312;2023-11-22T11:42:26;25.73;;;16.40;;
3647;SDS011;1840;48.892;15.312;2023-11-22T11:45:04;26.03;;;15.97;;
3647;SDS011;1840;48.892;15.312;2023-11-22T11:47:36;30.07;;;16.77;;
3647;SDS011;1840;48.892;15.312;2023-11-22T11:50:05;28.33;;;16.23;;
3647;SDS011;1840;48.892;15.312;2023-11-22T11:52:35;22.50;;;14.20;;
3647;SDS011;1840;48.892;15.312;2023-11-22T11:55:07;26.10;;;15.47;;
3647;SDS011;1840;48.892;15.312;2023-11-22T11:57:35;29.83;;;17.30;;
3647;SDS011;1840;48.892;15.312;2023-11-22T12:00:03;29.47;;;17.73;;
3647;SDS011;1840;48.892;15.312;2023-11-22T12:02:33;31.53;;;17.33;;
3647;SDS011;1840;48.892;15.312;2023-11-22T12:05:04;28.43;;;16.93;;
3647;SDS011;1840;48.892;15.312;2023-11-22T12:07:37;30.73;;;16.77;;
3647;SDS011;1840;48.892;15.312;2023-11-22T12:10:05;30.30;;;17.80;;
3647;SDS011;1840;48.892;15.312;2023-11-22T12:12:35;31.90;;;17.53;;
3647;SDS011;1840;48.892;15.312;2023-11-22T12:15:04;31.37;;;19.13;;
3647;SDS011;1840;48.892;15.312;2023-11-22T12:17:33;32.60;;;18.20;;
3647;SDS011;1840;48.892;15.312;2023-11-22T12:20:10;33.00;;;19.43;;
3647;SDS011;1840;48.892;15.312;2023-11-22T12:22:42;36.57;;;20.60;;
3647;SDS011;1840;48.892;15.312;2023-11-22T12:25:13;34.27;;;20.80;;
3647;SDS011;1840;48.892;15.312;2023-11-22T12:27:41;34.70;;;19.17;;
3647;SDS011;1840;48.892;15.312;2023-11-22T12:30:27;31.37;;;18.23;;
3647;SDS011;1840;48.892;15.312;2023-11-22T12:32:57;36.23;;;19.13;;
3647;SDS011;1840;48.892;15.312;2023-11-22T12:35:31;34.80;;;18.87;;
3647;SDS011;1840;48.892;15.312;2023-11-22T12:38:02;30.33;;;17.00;;
3647;SDS011;1840;48.892;15.312;2023-11-22T12:40:33;33.33;;;19.80;;
3647;SDS011;1840;48.892;15.312;2023-11-22T12:43:02;35.80;;;20.63;;
3647;SDS011;1840;48.892;15.312;2023-11-22T12:45:33;32.93;;;19.80;;
3647;SDS011;1840;48.892;15.312;2023-11-22T12:48:19;39.47;;;19.20;;
3647;SDS011;1840;48.892;15.312;2023-11-22T12:50:52;35.73;;;19.67;;
3647;SDS011;1840;48.892;15.312;2023-11-22T12:53:23;35.90;;;20.23;;
3647;SDS011;1840;48.892;15.312;2023-11-22T12:55:52;36.40;;;21.20;;
3647;SDS011;1840;48.892;15.312;2023-11-22T12:58:21;31.97;;;18.60;;
3647;SDS011;1840;48.892;15.312;2023-11-22T13:00:51;33.70;;;19.90;;
3647;SDS011;1840;48.892;15.312;2023-11-22T13:03:25;33.10;;;18.60;;
3647;SDS011;1840;48.892;15.312;2023-11-22T13:05:53;35.13;;;17.60;;
3647;SDS011;1840;48.892;15.312;2023-11-22T13:08:23;31.23;;;17.70;;
3647;SDS011;1840;48.892;15.312;2023-11-22T13:10:55;32.80;;;18.90;;
3647;SDS011;1840;48.892;15.312;2023-11-22T13:13:25;32.93;;;18.90;;
3647;SDS011;1840;48.892;15.312;2023-11-22T13:15:55;36.57;;;18.90;;
3647;SDS011;1840;48.892;15.312;2023-11-22T13:18:24;28.57;;;18.37;;
3647;SDS011;1840;48.892;15.312;2023-11-22T13:20:53;31.77;;;17.30;;
3647;SDS011;1840;48.892;15.312;2023-11-22T13:23:23;46.50;;;19.33;;
3647;SDS011;1840;48.892;15.312;2023-11-22T13:25:51;34.50;;;19.50;;
3647;SDS011;1840;48.892;15.312;2023-11-22T13:28:20;32.27;;;18.93;;
3647;SDS011;1840;48.892;15.312;2023-11-22T13:30:48;29.87;;;17.50;;
3647;SDS011;1840;48.892;15.312;2023-11-22T13:33:17;40.83;;;20.17;;
3647;SDS011;1840;48.892;15.312;2023-11-22T13:35:45;35.47;;;18.80;;
3647;SDS011;1840;48.892;15.312;2023-11-22T13:38:14;32.63;;;19.50;;
3647;SDS011;1840;48.892;15.312;2023-11-22T13:40:44;35.30;;;20.20;;
3647;SDS011;1840;48.892;15.312;2023-11-22T13:43:13;29.70;;;18.67;;
3647;SDS011;1840;48.892;15.312;2023-11-22T13:45:43;31.37;;;19.33;;
3647;SDS011;1840;48.892;15.312;2023-11-22T13:48:12;37.43;;;20.07;;
3647;SDS011;1840;48.892;15.312;2023-11-22T13:50:42;33.93;;;18.30;;
3647;SDS011;1840;48.892;15.312;2023-11-22T13:53:12;38.97;;;20.90;;
3647;SDS011;1840;48.892;15.312;2023-11-22T13:55:41;40.27;;;20.83;;
3647;SDS011;1840;48.892;15.312;2023-11-22T13:58:11;38.43;;;19.87;;
3647;SDS011;1840;48.892;15.312;2023-11-22T14:00:39;37.57;;;20.50;;
3647;SDS011;1840;48.892;15.312;2023-11-22T14:03:07;33.50;;;19.70;;
3647;SDS011;1840;48.892;15.312;2023-11-22T14:05:39;35.13;;;19.40;;
3647;SDS011;1840;48.892;15.312;2023-11-22T14:08:10;35.90;;;19.33;;
3647;SDS011;1840;48.892;15.312;2023-11-22T14:10:39;40.60;;;19.70;;
3647;SDS011;1840;48.892;15.312;2023-11-22T14:13:07;38.67;;;20.83;;
3647;SDS011;1840;48.892;15.312;2023-11-22T14:15:37;35.87;;;20.43;;
3647;SDS011;1840;48.892;15.312;2023-11-22T14:18:05;31.90;;;17.77;;
3647;SDS011;1840;48.892;15.312;2023-11-22T14:20:34;39.73;;;18.80;;
3647;SDS011;1840;48.892;15.312;2023-11-22T14:23:03;31.53;;;18.20;;
3647;SDS011;1840;48.892;15.312;2023-11-22T14:25:34;33.67;;;18.60;;
3647;SDS011;1840;48.892;15.312;2023-11-22T14:28:03;43.00;;;22.47;;
3647;SDS011;1840;48.892;15.312;2023-11-22T14:30:31;35.40;;;20.40;;
3647;SDS011;1840;48.892;15.312;2023-11-22T14:33:06;36.73;;;19.40;;
3647;SDS011;1840;48.892;15.312;2023-11-22T14:35:36;36.00;;;20.70;;
3647;SDS011;1840;48.892;15.312;2023-11-22T14:38:04;35.37;;;20.40;;
3647;SDS011;1840;48.892;15.312;2023-11-22T14:40:34;40.10;;;21.60;;
3647;SDS011;1840;48.892;15.312;2023-11-22T14:43:05;38.77;;;21.47;;
3647;SDS011;1840;48.892;15.312;2023-11-22T14:45:36;39.17;;;20.80;;
3647;SDS011;1840;48.892;15.312;2023-11-22T14:48:07;51.10;;;21.43;;
3647;SDS011;1840;48.892;15.312;2023-11-22T14:50:37;52.60;;;23.57;;
3647;SDS011;1840;48.892;15.312;2023-11-22T14:53:07;37.40;;;20.37;;
3647;SDS011;1840;48.892;15.312;2023-11-22T14:55:35;34.40;;;20.87;;
3647;SDS011;1840;48.892;15.312;2023-11-22T14:58:06;43.03;;;20.80;;
3647;SDS011;1840;48.892;15.312;2023-11-22T15:00:35;36.30;;;20.30;;
3647;SDS011;1840;48.892;15.312;2023-11-22T15:03:03;48.23;;;20.50;;